Terminal Aerodrome Forecast
Issued by NWS Jackson, MS

Home | Current Version | Previous Version | Text Only | Print | Product List | Glossary On
Versions: 1 2 3 4 5 6 7 8 9 10 11 12 13
000
FTUS44 KJAN 241723
TAFGLH
TAF
KGLH 241723Z 2418/2518 16017G23KT P6SM VCTS SCT030 BKN035CB
     FM242200 16020G26KT 1SM +TSRA BR OVC030CB
     FM250000 16020G30KT 3SM -RA BR VCTS OVC035CB
     FM250200 15022G30KT 6SM -RA BR OVC050
     FM251200 17007KT 6SM BR OVC025
     FM251500 19011KT P6SM BKN050=

USA.gov is the U.S. government's official web portal to all federal, state and local government web resources and services.